Aérodrome :
LOGIN :

S'inscrire | Disclaimer

   EN    FR    IT 

 










Légende :    VFR   VFR Marginal   IFR   IFR Intensif   IFR Très Intensif
Visi : 
Plafond : 
>= 8 km
>= 3000ft
5 à 8 km
1000 à 3000 ft
1500m à 5 km
500 à 1000 ft
800 à 1500m
200 à 500 ft
< 800m
< 200 ft
Symboles :   Orages  Brouillard  Fortes neiges  Fortes précipitations  Vent > 20 kt
SIGMETs :   Divers  Orages  Givrage  Turbulence  Onde Orograph.  Cendres Volcan.






- Altitude de l'aérodrome : 83 ft
- Code IATA : LHR


EGLL - London Heathrow

DERNIER METAR :
  • 031050Z AUTO 24016KT 9999 BKN036 20/10 Q1016 NOSIG

METARs EXPIRÉS :
  • 031020Z AUTO 24016KT 9999 SCT035 19/10 Q1016 NOSIG
  • 030950Z AUTO 25015KT 9999 BKN034 19/10 Q1016 NOSIG
  • 030920Z AUTO 24015KT 9999 BKN030 18/10 Q1016 NOSIG
  • 030850Z AUTO 25015KT 9999 SCT026 18/10 Q1016 NOSIG
  • 030820Z AUTO 23012KT 9999 FEW024 17/11 Q1016

TAF TAF EGLL
Valide du 03 à 06h jusqu'au 04 à 12h UTC


030452Z 0306/0412 26008KT 9999 SCT035
PROB30 0306/0307 4000 HZ
TEMPO 0311/0324 22016G26KT
TEMPO 0314/0406 7000 RA
BECMG 0318/0321 BKN012
PROB40
TEMPO 0321/0412 4000 RADZ BKN008



MET'MAP, la Météo Aéronautique d'un coup d'oeil ! - Copyright ORBIFLY Décembre 2007 - Disclaimer

ORBIFLY MET'MAP TEAM :

Programmation & Développement : Alexandra Zaïnal
Sur une idée originale de : Baudouin d'Aumeries
Assistance à la programmation : Marc-Olivier Méhu
Soutien technique & logistique : Manuel Goepfert

Contact : metmap@orbifly.com




SOURCES & CREDITS :

   NOAA